Time;durP1;ratioP1;P1;durP2;ratioP2;P2;SDS_P1;SDS_P2;PMS_P1;PMS_P2;Temp;Humidity;BMP_temperature;BMP_pressure;BME280_temperature;BME280_humidity;BME280_pressure;Samples;Min_cycle;Max_cycle;Signal;HPM_P1;HPM_P2
2023/01/15 00:02:00;;;;;;;1.03;1.03;;;9.10;99.90;;;;;;453964;262;28106;-75
2023/01/15 00:04:04;;;;;;;1.10;1.00;;;9.10;99.90;;;;;;470679;253;28443;-75
2023/01/15 00:06:05;;;;;;;1.33;1.23;;;9.10;99.90;;;;;;454016;262;27989;-75
2023/01/15 00:08:07;;;;;;;1.97;1.20;;;9.10;99.90;;;;;;470599;253;27441;-75
2023/01/15 00:10:08;;;;;;;1.10;1.10;;;9.10;99.90;;;;;;454061;262;28079;-75
2023/01/15 00:12:09;;;;;;;1.00;1.00;;;9.10;99.90;;;;;;470657;253;28404;-75
2023/01/15 00:14:11;;;;;;;1.17;1.10;;;9.10;99.90;;;;;;454034;262;28568;-75
2023/01/15 00:16:12;;;;;;;1.10;1.10;;;9.10;99.90;;;;;;470687;253;28560;-75
2023/01/15 00:18:13;;;;;;;1.37;1.27;;;9.10;99.90;;;;;;454032;262;28425;-75
2023/01/15 00:20:14;;;;;;;1.10;1.00;;;9.10;99.90;;;;;;470694;253;28221;-75
2023/01/15 00:22:15;;;;;;;1.00;1.00;;;9.10;99.90;;;;;;454002;262;27984;-75
2023/01/15 00:28:55;;;;;;;2.80;1.10;;;9.10;99.90;;;;;;470651;253;28369;-74
2023/01/15 00:30:57;;;;;;;1.00;1.00;;;9.10;99.90;;;;;;454036;262;28545;-75
2023/01/15 00:33:01;;;;;;;1.00;1.00;;;9.10;99.90;;;;;;470662;253;28526;-75
2023/01/15 00:35:02;;;;;;;1.17;1.07;;;9.10;99.90;;;;;;454061;262;28125;-75
2023/01/15 00:37:03;;;;;;;2.40;1.83;;;9.10;99.90;;;;;;470671;253;27643;-75
2023/01/15 00:39:05;;;;;;;1.80;1.33;;;9.10;99.90;;;;;;454028;262;28237;-75
2023/01/15 00:41:06;;;;;;;1.07;1.07;;;9.00;99.90;;;;;;470666;253;28438;-75
2023/01/15 00:43:07;;;;;;;1.00;1.00;;;9.00;99.90;;;;;;454049;262;28210;-75
2023/01/15 00:45:11;;;;;;;3.00;1.20;;;9.10;99.90;;;;;;470693;253;28450;-75
2023/01/15 00:47:15;;;;;;;1.07;1.00;;;9.10;99.90;;;;;;454056;262;28642;-75
2023/01/15 00:49:14;;;;;;;1.47;0.90;;;9.00;99.90;;;;;;470433;253;28358;-75
2023/01/15 00:51:15;;;;;;;1.00;1.00;;;9.10;99.90;;;;;;470686;253;28548;-75
2023/01/15 00:53:16;;;;;;;0.87;0.87;;;9.10;99.90;;;;;;454065;262;27948;-75
2023/01/15 00:55:17;;;;;;;0.90;0.90;;;9.10;99.90;;;;;;470625;253;27771;-75
2023/01/15 00:57:19;;;;;;;1.30;1.20;;;9.10;99.90;;;;;;454028;262;28085;-75
2023/01/15 00:59:20;;;;;;;1.10;1.10;;;9.10;99.90;;;;;;470635;253;27969;-75
2023/01/15 01:01:21;;;;;;;1.20;1.10;;;9.10;99.90;;;;;;453974;262;28080;-75
2023/01/15 01:03:22;;;;;;;1.10;1.10;;;9.10;99.90;;;;;;470606;252;28044;-75
2023/01/15 01:05:24;;;;;;;0.90;0.90;;;9.10;99.90;;;;;;453934;262;27758;-75
2023/01/15 01:07:25;;;;;;;1.13;1.00;;;9.10;99.90;;;;;;470672;253;28438;-75
2023/01/15 01:09:26;;;;;;;1.77;1.13;;;9.10;99.90;;;;;;470433;253;28055;-75
2023/01/15 01:11:32;;;;;;;1.10;0.90;;;9.10;99.90;;;;;;470679;253;28188;-75
2023/01/15 01:13:29;;;;;;;1.10;1.10;;;9.10;99.90;;;;;;453687;262;27611;-75
2023/01/15 01:15:30;;;;;;;0.97;0.97;;;9.10;99.90;;;;;;470544;253;27961;-75
2023/01/15 01:17:32;;;;;;;1.00;1.00;;;9.10;99.90;;;;;;453971;262;27719;-75
2023/01/15 01:19:32;;;;;;;1.00;1.00;;;9.10;99.90;;;;;;470628;253;27925;-75
2023/01/15 01:21:34;;;;;;;1.00;1.00;;;9.10;99.90;;;;;;454083;262;28008;-76
2023/01/15 01:23:35;;;;;;;1.37;1.27;;;9.20;99.90;;;;;;470658;253;28000;-75
2023/01/15 01:25:36;;;;;;;3.10;1.03;;;9.20;99.90;;;;;;453966;262;27979;-75
2023/01/15 01:27:37;;;;;;;0.90;0.90;;;9.20;99.90;;;;;;470687;253;28452;-75
2023/01/15 01:29:39;;;;;;;1.33;1.23;;;9.20;99.90;;;;;;454021;262;28077;-75
2023/01/15 01:31:40;;;;;;;1.33;1.10;;;9.10;99.90;;;;;;470531;253;27988;-75
2023/01/15 01:33:41;;;;;;;1.00;1.00;;;9.10;99.90;;;;;;454036;262;28001;-75
2023/01/15 01:35:42;;;;;;;1.20;1.20;;;9.20;99.90;;;;;;470599;253;28203;-75
2023/01/15 01:37:44;;;;;;;0.90;0.90;;;9.20;99.90;;;;;;454064;262;28254;-75
2023/01/15 01:39:45;;;;;;;0.90;0.90;;;9.10;99.90;;;;;;470674;253;28329;-75
2023/01/15 01:41:46;;;;;;;1.73;0.90;;;9.20;99.90;;;;;;453997;262;28560;-75
2023/01/15 01:43:47;;;;;;;1.07;1.07;;;9.10;99.90;;;;;;470636;253;28343;-75
2023/01/15 01:45:49;;;;;;;2.00;1.00;;;9.20;99.90;;;;;;453858;262;28047;-75
2023/01/15 01:47:50;;;;;;;0.90;0.90;;;9.20;99.90;;;;;;470690;253;27972;-75
2023/01/15 01:49:51;;;;;;;2.43;1.10;;;9.20;99.90;;;;;;454007;262;28315;-75
2023/01/15 01:51:52;;;;;;;2.10;1.40;;;9.10;99.90;;;;;;470588;253;27944;-75
2023/01/15 01:53:54;;;;;;;1.23;1.00;;;9.10;99.90;;;;;;454031;262;27604;-75
2023/01/15 01:55:55;;;;;;;0.90;0.90;;;9.10;99.90;;;;;;470535;253;27842;-75
2023/01/15 01:57:56;;;;;;;0.80;0.80;;;9.10;99.90;;;;;;470532;253;27956;-75
2023/01/15 01:59:57;;;;;;;1.63;1.00;;;9.10;99.90;;;;;;454053;262;27811;-75
2023/01/15 02:01:59;;;;;;;0.80;0.80;;;9.00;99.90;;;;;;470615;253;27981;-75
2023/01/15 02:04:00;;;;;;;2.33;1.20;;;9.00;99.90;;;;;;454031;262;27960;-75
2023/01/15 02:06:01;;;;;;;0.90;0.90;;;9.00;99.90;;;;;;470646;253;28371;-75
2023/01/15 02:08:02;;;;;;;0.87;0.87;;;8.90;99.90;;;;;;453783;262;28019;-75
2023/01/15 02:10:04;;;;;;;0.90;0.90;;;8.90;99.90;;;;;;470503;253;27970;-75
2023/01/15 02:12:05;;;;;;;1.20;1.10;;;8.90;99.90;;;;;;453780;262;27996;-75
2023/01/15 02:14:06;;;;;;;0.80;0.80;;;8.90;99.90;;;;;;470628;252;27640;-75
2023/01/15 02:16:07;;;;;;;0.87;0.87;;;8.90;99.90;;;;;;470531;253;28042;-75
2023/01/15 02:18:09;;;;;;;0.90;0.90;;;8.80;99.90;;;;;;454047;262;29219;-75
2023/01/15 02:20:10;;;;;;;1.53;0.93;;;8.80;99.90;;;;;;470667;253;28531;-75
2023/01/15 02:22:11;;;;;;;0.80;0.80;;;8.70;99.90;;;;;;453910;262;28506;-76
2023/01/15 02:24:12;;;;;;;1.40;0.80;;;8.60;99.90;;;;;;470586;253;28539;-75
2023/01/15 02:26:14;;;;;;;0.67;0.67;;;8.50;99.90;;;;;;453696;262;27900;-75
2023/01/15 02:28:15;;;;;;;0.70;0.70;;;8.50;99.90;;;;;;470565;250;28082;-76
2023/01/15 02:30:16;;;;;;;1.10;1.00;;;8.40;99.90;;;;;;453973;262;27984;-75
2023/01/15 02:32:17;;;;;;;0.90;0.90;;;8.40;99.90;;;;;;470555;253;27836;-75
2023/01/15 02:34:19;;;;;;;0.73;0.73;;;8.30;99.90;;;;;;453975;262;28071;-75
2023/01/15 02:36:20;;;;;;;0.90;0.90;;;8.30;99.90;;;;;;470559;253;27984;-75
2023/01/15 02:38:21;;;;;;;0.80;0.80;;;8.30;99.90;;;;;;453935;262;29617;-75
2023/01/15 02:40:22;;;;;;;0.70;0.70;;;8.20;99.90;;;;;;470445;253;28160;-75
2023/01/15 02:42:24;;;;;;;0.83;0.83;;;8.20;99.90;;;;;;453945;262;28502;-75
2023/01/15 02:44:25;;;;;;;0.80;0.80;;;8.20;99.90;;;;;;470698;253;28392;-75
2023/01/15 02:46:26;;;;;;;0.80;0.80;;;8.20;99.90;;;;;;454048;262;28589;-75
2023/01/15 02:48:27;;;;;;;0.80;0.80;;;8.20;99.90;;;;;;470647;253;28001;-75
2023/01/15 02:50:29;;;;;;;1.00;0.90;;;8.20;99.90;;;;;;454075;262;27926;-75
2023/01/15 02:52:30;;;;;;;0.80;0.80;;;8.10;99.90;;;;;;470526;253;27935;-75
2023/01/15 02:54:31;;;;;;;1.43;0.70;;;8.10;99.90;;;;;;470563;253;27713;-75
2023/01/15 02:56:34;;;;;;;0.77;0.77;;;8.10;99.90;;;;;;470629;253;27809;-75
2023/01/15 02:58:34;;;;;;;0.70;0.70;;;8.10;99.90;;;;;;453922;262;28068;-75
2023/01/15 03:00:35;;;;;;;1.33;0.83;;;8.00;99.90;;;;;;470689;253;28034;-75
2023/01/15 03:02:36;;;;;;;0.70;0.70;;;8.00;99.90;;;;;;453995;262;27972;-75
2023/01/15 03:04:37;;;;;;;0.70;0.70;;;7.90;99.90;;;;;;470703;253;27931;-75
2023/01/15 03:06:39;;;;;;;0.83;0.83;;;7.90;99.90;;;;;;454042;262;28109;-75
2023/01/15 03:08:40;;;;;;;0.80;0.80;;;7.90;99.90;;;;;;470500;253;28279;-75
2023/01/15 03:10:42;;;;;;;1.77;0.80;;;7.80;99.90;;;;;;453958;262;28042;-75
2023/01/15 03:13:05;;;;;;;4.67;1.20;;;7.80;99.90;;;;;;470552;253;27929;-75
2023/01/15 03:14:44;;;;;;;0.73;0.73;;;7.80;99.90;;;;;;452192;262;28007;-75
2023/01/15 03:16:45;;;;;;;0.73;0.73;;;7.80;99.90;;;;;;454636;261;28290;-75
2023/01/15 03:18:46;;;;;;;0.80;0.80;;;7.80;99.90;;;;;;470562;253;28485;-75
2023/01/15 03:20:47;;;;;;;0.80;0.80;;;7.80;99.90;;;;;;453920;262;28577;-75
2023/01/15 03:22:49;;;;;;;0.80;0.80;;;7.70;99.90;;;;;;470597;253;28446;-75
2023/01/15 03:24:50;;;;;;;0.97;0.80;;;7.70;99.90;;;;;;453961;262;28495;-75
2023/01/15 03:26:51;;;;;;;0.80;0.80;;;7.80;99.90;;;;;;470681;252;27903;-75
2023/01/15 03:28:52;;;;;;;1.00;0.80;;;7.80;99.90;;;;;;454033;262;27969;-75
2023/01/15 03:30:54;;;;;;;0.87;0.80;;;7.70;99.90;;;;;;470703;253;28083;-75
2023/01/15 03:32:55;;;;;;;0.80;0.80;;;7.70;99.90;;;;;;454040;262;28675;-75
2023/01/15 03:34:56;;;;;;;0.70;0.70;;;7.70;99.90;;;;;;470616;253;27913;-75
2023/01/15 03:36:57;;;;;;;0.80;0.80;;;7.70;99.90;;;;;;454037;262;28085;-75
2023/01/15 03:38:59;;;;;;;0.80;0.80;;;7.70;99.90;;;;;;470636;253;27924;-75
2023/01/15 03:41:00;;;;;;;1.47;0.80;;;7.70;99.90;;;;;;453872;262;28021;-75
2023/01/15 03:45:21;;;;;;;1.00;0.90;;;7.60;99.90;;;;;;453945;262;28622;-73
2023/01/15 03:47:22;;;;;;;4.73;1.00;;;7.60;99.90;;;;;;470634;253;28233;-75
2023/01/15 03:49:23;;;;;;;1.13;0.93;;;7.50;99.90;;;;;;470649;253;28455;-76
2023/01/15 03:51:24;;;;;;;1.00;1.00;;;7.60;99.90;;;;;;470622;253;28409;-75
2023/01/15 03:53:26;;;;;;;0.80;0.80;;;7.60;99.90;;;;;;454072;262;28075;-75
2023/01/15 03:55:27;;;;;;;0.83;0.83;;;7.60;99.90;;;;;;470459;252;27675;-75
2023/01/15 03:57:28;;;;;;;0.90;0.90;;;7.50;99.90;;;;;;470563;253;27820;-75
2023/01/15 03:59:29;;;;;;;2.00;1.20;;;7.50;99.90;;;;;;453996;262;27939;-75
2023/01/15 04:01:31;;;;;;;0.80;0.80;;;7.50;99.90;;;;;;470578;253;28026;-75
2023/01/15 04:03:32;;;;;;;0.80;0.80;;;7.40;99.90;;;;;;453996;262;28098;-75
2023/01/15 04:05:33;;;;;;;0.80;0.80;;;7.40;99.90;;;;;;470656;253;28816;-75
2023/01/15 04:07:34;;;;;;;0.80;0.80;;;7.30;99.90;;;;;;453931;262;28537;-75
2023/01/15 04:09:36;;;;;;;0.80;0.80;;;7.20;99.90;;;;;;470551;253;29241;-75
2023/01/15 04:11:37;;;;;;;0.80;0.80;;;7.00;99.90;;;;;;470569;253;28448;-75
2023/01/15 04:13:38;;;;;;;0.80;0.80;;;6.90;99.90;;;;;;454048;262;28509;-75
2023/01/15 04:15:39;;;;;;;0.70;0.70;;;6.90;99.90;;;;;;470660;253;27884;-75
2023/01/15 04:17:41;;;;;;;0.70;0.70;;;6.70;99.90;;;;;;453977;262;28022;-75
2023/01/15 04:19:43;;;;;;;0.70;0.70;;;6.70;99.90;;;;;;470668;250;27478;-75
2023/01/15 04:21:43;;;;;;;0.80;0.80;;;6.70;99.90;;;;;;453937;262;27512;-75
2023/01/15 04:23:45;;;;;;;1.57;0.80;;;6.60;99.90;;;;;;470611;253;28739;-75
2023/01/15 04:25:46;;;;;;;0.70;0.70;;;6.60;99.90;;;;;;453965;262;27651;-73
2023/01/15 04:27:47;;;;;;;1.00;1.00;;;6.60;99.90;;;;;;470598;253;28901;-72
2023/01/15 04:29:48;;;;;;;0.97;0.80;;;6.60;99.90;;;;;;453984;262;27711;-73
2023/01/15 04:31:52;;;;;;;0.73;0.73;;;6.60;99.90;;;;;;470658;253;28900;-73
2023/01/15 04:33:51;;;;;;;0.80;0.80;;;6.60;99.90;;;;;;453920;262;28702;-72
2023/01/15 04:35:52;;;;;;;0.83;0.83;;;6.60;99.90;;;;;;470520;253;28379;-73
2023/01/15 04:37:53;;;;;;;0.80;0.80;;;6.50;99.90;;;;;;454012;262;28516;-75
2023/01/15 04:39:54;;;;;;;0.80;0.80;;;6.50;99.90;;;;;;470510;253;27453;-73
2023/01/15 04:44:15;;;;;;;0.82;0.80;;;6.50;99.90;;;;;;470660;253;28934;-72
2023/01/15 04:46:17;;;;;;;1.58;0.88;;;6.40;99.90;;;;;;454005;262;27489;-75
2023/01/15 04:48:18;;;;;;;0.90;0.90;;;6.40;99.90;;;;;;470676;253;27486;-73
2023/01/15 04:50:19;;;;;;;0.80;0.80;;;6.40;99.90;;;;;;454016;262;27540;-72
2023/01/15 04:52:20;;;;;;;1.10;0.85;;;6.30;99.90;;;;;;470620;253;28066;-73
2023/01/15 04:54:22;;;;;;;0.80;0.80;;;6.30;99.90;;;;;;454042;262;27992;-73
2023/01/15 04:56:23;;;;;;;1.00;1.00;;;6.30;99.90;;;;;;470606;253;27453;-75
2023/01/15 04:58:24;;;;;;;1.00;1.00;;;6.30;99.90;;;;;;454032;262;27609;-73
2023/01/15 05:00:25;;;;;;;1.35;0.90;;;6.20;99.90;;;;;;470614;253;28124;-75
2023/01/15 05:02:27;;;;;;;1.00;1.00;;;6.20;99.90;;;;;;454018;262;27580;-75
2023/01/15 05:04:28;;;;;;;1.00;1.00;;;6.10;99.90;;;;;;470643;252;28072;-73
2023/01/15 05:06:33;;;;;;;3.50;0.93;;;6.10;99.90;;;;;;476058;247;29082;-72
2023/01/15 05:08:30;;;;;;;0.80;0.80;;;6.00;99.90;;;;;;460081;258;27527;-75
2023/01/15 05:10:32;;;;;;;1.23;0.90;;;6.00;99.90;;;;;;462033;257;27579;-75
2023/01/15 05:12:33;;;;;;;1.25;1.00;;;6.00;99.90;;;;;;477699;249;27395;-75
2023/01/15 05:14:34;;;;;;;0.80;0.80;;;6.00;99.90;;;;;;462047;257;27530;-73
2023/01/15 05:16:37;;;;;;;0.80;0.80;;;6.10;99.90;;;;;;477843;249;27553;-73
2023/01/15 05:18:37;;;;;;;0.80;0.80;;;6.00;99.90;;;;;;462100;257;27958;-73
2023/01/15 05:20:38;;;;;;;0.80;0.80;;;6.00;99.90;;;;;;477891;245;28125;-73
2023/01/15 05:22:39;;;;;;;1.62;1.00;;;6.00;99.90;;;;;;477875;249;27526;-73
2023/01/15 05:24:40;;;;;;;1.10;1.00;;;6.00;99.90;;;;;;477736;249;27458;-75
2023/01/15 05:26:42;;;;;;;0.82;0.82;;;6.00;99.90;;;;;;462080;257;27566;-75
2023/01/15 05:28:43;;;;;;;0.90;0.90;;;5.90;99.90;;;;;;477958;249;27509;-72
2023/01/15 05:30:44;;;;;;;0.80;0.80;;;5.90;99.90;;;;;;462164;257;28053;-75
2023/01/15 05:32:46;;;;;;;1.00;1.00;;;5.90;99.90;;;;;;477960;249;29324;-75
2023/01/15 05:34:47;;;;;;;0.85;0.85;;;5.80;99.90;;;;;;477982;249;28049;-75
2023/01/15 05:36:48;;;;;;;0.80;0.80;;;5.80;99.90;;;;;;462151;257;27498;-73
2023/01/15 05:38:49;;;;;;;0.70;0.70;;;5.80;99.90;;;;;;477916;249;27446;-73
2023/01/15 05:40:51;;;;;;;0.70;0.70;;;5.90;99.90;;;;;;461944;257;27589;-75
2023/01/15 05:42:52;;;;;;;0.77;0.77;;;5.90;99.90;;;;;;477793;249;27512;-75
2023/01/15 05:44:53;;;;;;;0.90;0.90;;;5.90;99.90;;;;;;477789;249;27542;-75
2023/01/15 05:46:54;;;;;;;0.93;0.82;;;5.90;99.90;;;;;;477847;249;27881;-73
2023/01/15 05:48:56;;;;;;;0.82;0.82;;;5.90;99.90;;;;;;477926;249;27936;-75
2023/01/15 05:50:57;;;;;;;1.27;0.80;;;5.80;99.90;;;;;;462109;257;27505;-75
2023/01/15 05:52:58;;;;;;;1.10;0.88;;;5.80;99.90;;;;;;477887;249;27510;-75
2023/01/15 05:54:59;;;;;;;1.15;1.02;;;5.80;99.90;;;;;;477851;249;27454;-74
2023/01/15 05:57:01;;;;;;;0.80;0.80;;;5.70;99.90;;;;;;477902;249;27469;-75
2023/01/15 05:59:02;;;;;;;0.85;0.80;;;5.70;99.90;;;;;;462108;257;27518;-74
2023/01/15 06:01:03;;;;;;;0.90;0.90;;;5.70;99.90;;;;;;477959;249;27438;-75
2023/01/15 06:03:04;;;;;;;0.88;0.88;;;5.70;99.90;;;;;;462102;257;28061;-75
2023/01/15 06:05:06;;;;;;;1.00;1.00;;;5.70;99.90;;;;;;477921;248;28059;-72
2023/01/15 06:07:07;;;;;;;1.15;0.88;;;5.70;99.90;;;;;;477952;249;27499;-73
2023/01/15 06:09:08;;;;;;;0.80;0.80;;;5.60;99.90;;;;;;477822;249;27454;-73
2023/01/15 06:11:10;;;;;;;0.80;0.80;;;5.60;99.90;;;;;;477746;249;27792;-75
2023/01/15 06:13:11;;;;;;;1.00;1.00;;;5.60;99.90;;;;;;477934;249;27466;-75
2023/01/15 06:15:12;;;;;;;0.82;0.82;;;5.60;99.90;;;;;;462123;257;27521;-75
2023/01/15 06:17:13;;;;;;;1.08;0.80;;;5.60;99.90;;;;;;477938;249;28080;-75
2023/01/15 06:19:14;;;;;;;0.80;0.80;;;5.50;99.90;;;;;;472418;251;28088;-75
2023/01/15 06:21:16;;;;;;;0.90;0.85;;;5.50;99.90;;;;;;472650;251;27549;-75
2023/01/15 06:23:17;;;;;;;0.98;0.80;;;5.50;99.90;;;;;;472598;251;27590;-75
2023/01/15 06:25:18;;;;;;;1.00;1.00;;;5.40;99.90;;;;;;472650;251;27648;-73
2023/01/15 06:27:19;;;;;;;0.80;0.80;;;5.40;99.90;;;;;;472666;251;27517;-73
2023/01/15 06:29:21;;;;;;;2.12;1.00;;;5.40;99.90;;;;;;472626;251;27576;-72
2023/01/15 06:31:22;;;;;;;0.70;0.70;;;5.40;99.90;;;;;;472646;251;28133;-73
2023/01/15 06:33:23;;;;;;;1.00;1.00;;;5.40;99.90;;;;;;472633;251;28079;-73
2023/01/15 06:35:25;;;;;;;0.80;0.80;;;5.40;99.90;;;;;;472609;251;27559;-73
2023/01/15 06:37:26;;;;;;;0.95;0.90;;;5.40;99.90;;;;;;472661;251;27588;-75
2023/01/15 06:39:27;;;;;;;0.90;0.90;;;5.40;99.90;;;;;;472645;251;27556;-75
2023/01/15 06:48:27;;;;;;;0.73;0.73;;;5.30;99.90;;;;;;472656;251;27567;-72
2023/01/15 06:50:28;;;;;;;1.05;0.80;;;5.30;99.90;;;;;;472660;251;27581;-72
2023/01/15 06:52:29;;;;;;;0.80;0.80;;;5.20;99.90;;;;;;472668;251;27557;-75
2023/01/15 06:54:31;;;;;;;0.80;0.80;;;5.20;99.90;;;;;;472603;251;28308;-75
2023/01/15 06:56:32;;;;;;;0.90;0.90;;;5.10;99.90;;;;;;467912;251;28003;-73
2023/01/15 06:58:33;;;;;;;0.90;0.90;;;5.10;99.90;;;;;;461426;258;27689;-75
2023/01/15 07:00:34;;;;;;;0.75;0.75;;;5.10;99.90;;;;;;461401;258;27638;-75
2023/01/15 07:02:36;;;;;;;1.00;1.00;;;5.10;99.90;;;;;;461407;258;27610;-73
2023/01/15 07:04:37;;;;;;;1.05;1.05;;;5.10;99.90;;;;;;461347;258;27997;-72
2023/01/15 07:06:38;;;;;;;0.82;0.82;;;5.00;99.90;;;;;;461384;258;27558;-73
2023/01/15 07:08:39;;;;;;;0.80;0.80;;;5.00;99.90;;;;;;461426;258;28101;-73
2023/01/15 07:10:41;;;;;;;1.77;1.00;;;5.00;99.90;;;;;;461373;258;28079;-73
2023/01/15 07:12:42;;;;;;;0.82;0.82;;;5.00;99.90;;;;;;461400;258;27639;-73
2023/01/15 07:14:43;;;;;;;0.80;0.80;;;5.10;99.90;;;;;;461397;258;27502;-73
2023/01/15 07:16:44;;;;;;;0.85;0.80;;;5.00;99.90;;;;;;461365;258;27545;-73
2023/01/15 07:18:46;;;;;;;0.80;0.80;;;5.00;99.90;;;;;;461406;258;27594;-73
2023/01/15 07:20:47;;;;;;;0.90;0.90;;;5.00;99.90;;;;;;461357;258;27560;-72
2023/01/15 07:22:48;;;;;;;0.80;0.80;;;5.00;99.90;;;;;;461375;258;27698;-72
2023/01/15 07:24:50;;;;;;;0.80;0.80;;;5.00;99.90;;;;;;461377;258;27612;-75
2023/01/15 07:26:51;;;;;;;0.88;0.88;;;4.90;99.90;;;;;;461363;258;28277;-75
2023/01/15 07:28:52;;;;;;;0.93;0.90;;;4.90;99.90;;;;;;461375;258;28191;-75
2023/01/15 07:30:53;;;;;;;0.80;0.80;;;5.00;99.90;;;;;;461366;258;27505;-73
2023/01/15 07:32:55;;;;;;;0.90;0.90;;;5.00;99.90;;;;;;461387;258;27676;-73
2023/01/15 07:34:56;;;;;;;1.35;1.25;;;5.00;99.90;;;;;;461395;258;27669;-73
2023/01/15 07:36:57;;;;;;;0.77;0.77;;;5.10;99.90;;;;;;461367;254;27628;-73
2023/01/15 07:38:58;;;;;;;1.02;0.80;;;5.10;99.90;;;;;;461416;258;27497;-72
2023/01/15 07:49:44;;;;;;;0.85;0.85;;;5.00;99.90;;;;;;461381;258;27608;-73
2023/01/15 07:50:05;;;;;;;0.88;0.88;;;5.10;99.90;;;;;;461357;258;27726;-73
2023/01/15 07:52:07;;;;;;;0.90;0.90;;;5.10;99.90;;;;;;461397;258;28161;-73
2023/01/15 07:54:08;;;;;;;0.70;0.70;;;5.00;99.90;;;;;;461416;258;28089;-73
2023/01/15 07:56:09;;;;;;;1.00;1.00;;;5.10;99.90;;;;;;461415;258;28162;-75
2023/01/15 07:58:10;;;;;;;0.90;0.90;;;5.10;99.90;;;;;;461375;258;27595;-75
2023/01/15 08:00:12;;;;;;;0.90;0.90;;;5.10;99.90;;;;;;461378;258;27702;-72
2023/01/15 08:02:13;;;;;;;1.65;0.90;;;5.00;99.90;;;;;;461378;258;27593;-73
2023/01/15 08:04:14;;;;;;;1.90;0.95;;;5.10;99.90;;;;;;461401;258;27641;-73
2023/01/15 08:06:15;;;;;;;0.90;0.90;;;5.00;99.90;;;;;;461387;258;27708;-73
2023/01/15 08:08:17;;;;;;;1.75;1.00;;;5.10;99.90;;;;;;461358;253;27594;-73
2023/01/15 08:10:18;;;;;;;1.00;1.00;;;5.00;99.90;;;;;;461399;258;27998;-72
2023/01/15 08:16:58;;;;;;;2.30;1.25;;;4.90;99.90;;;;;;461438;258;27683;-72
2023/01/15 08:19:00;;;;;;;1.45;1.30;;;4.90;99.90;;;;;;461388;258;27630;-73
2023/01/15 08:21:01;;;;;;;1.98;1.10;;;4.90;99.90;;;;;;461285;257;27574;-73
2023/01/15 08:23:02;;;;;;;1.12;1.00;;;4.80;99.90;;;;;;461403;258;27539;-72
2023/01/15 08:25:03;;;;;;;0.93;0.93;;;4.90;99.90;;;;;;461410;258;27610;-72
2023/01/15 08:27:05;;;;;;;1.87;1.27;;;4.90;99.90;;;;;;461427;258;28016;-73
2023/01/15 08:29:06;;;;;;;3.12;1.30;;;4.90;99.90;;;;;;461397;258;28096;-72
2023/01/15 08:31:07;;;;;;;1.00;0.90;;;4.90;99.90;;;;;;461394;258;27606;-75
2023/01/15 08:33:08;;;;;;;1.50;1.12;;;4.90;99.90;;;;;;461372;258;27702;-75
2023/01/15 08:35:11;;;;;;;2.60;1.10;;;4.90;99.90;;;;;;461385;258;27693;-72
2023/01/15 08:37:11;;;;;;;1.55;1.10;;;4.90;99.90;;;;;;461321;258;27713;-72
2023/01/15 08:39:12;;;;;;;1.08;1.00;;;4.80;99.90;;;;;;461378;258;27586;-72
2023/01/15 08:41:13;;;;;;;1.05;1.05;;;4.90;99.90;;;;;;461413;258;27562;-75
2023/01/15 08:43:15;;;;;;;0.90;0.90;;;4.90;99.90;;;;;;461401;258;28011;-72
2023/01/15 08:45:16;;;;;;;1.20;1.10;;;4.90;99.90;;;;;;461344;258;28064;-75
2023/01/15 08:47:17;;;;;;;3.03;1.00;;;5.00;99.90;;;;;;461388;258;27506;-73
2023/01/15 08:49:18;;;;;;;2.15;1.10;;;5.00;99.90;;;;;;461388;258;27597;-73
2023/01/15 08:51:20;;;;;;;2.47;1.20;;;5.10;99.90;;;;;;461377;258;27700;-75
2023/01/15 08:53:21;;;;;;;2.25;1.20;;;5.00;99.90;;;;;;461416;258;27606;-75
2023/01/15 08:55:22;;;;;;;3.62;1.30;;;5.10;99.90;;;;;;461373;258;27701;-77
2023/01/15 08:57:23;;;;;;;3.90;1.10;;;5.00;99.90;;;;;;461389;258;28056;-74
2023/01/15 08:59:25;;;;;;;1.20;1.10;;;5.00;99.90;;;;;;461424;258;27613;-77
2023/01/15 09:01:26;;;;;;;1.20;0.95;;;5.00;99.90;;;;;;461373;258;27614;-74
2023/01/15 09:03:27;;;;;;;2.33;1.00;;;5.00;99.90;;;;;;461394;258;27567;-77
2023/01/15 09:05:29;;;;;;;1.45;1.35;;;5.10;99.90;;;;;;461389;258;27678;-75
2023/01/15 09:07:30;;;;;;;4.93;1.62;;;5.10;99.90;;;;;;461415;253;27658;-75
2023/01/15 09:09:31;;;;;;;1.17;1.08;;;5.10;99.90;;;;;;461325;258;28129;-76
2023/01/15 09:11:32;;;;;;;2.20;1.15;;;5.00;99.90;;;;;;461421;258;28719;-78
2023/01/15 09:13:34;;;;;;;1.52;1.37;;;5.00;99.90;;;;;;461395;258;27637;-76
2023/01/15 09:15:35;;;;;;;1.62;0.95;;;5.10;99.90;;;;;;461338;258;27590;-77
2023/01/15 09:17:39;;;;;;;2.47;1.25;;;5.10;99.90;;;;;;461414;258;27551;-72
2023/01/15 09:19:37;;;;;;;1.85;1.40;;;5.10;99.90;;;;;;461151;258;27594;-76
2023/01/15 09:21:39;;;;;;;3.33;1.30;;;5.10;99.90;;;;;;461391;258;28093;-75
2023/01/15 09:23:40;;;;;;;2.37;1.20;;;5.10;99.90;;;;;;461387;258;28121;-73
2023/01/15 09:25:41;;;;;;;1.20;1.10;;;5.10;99.90;;;;;;465125;251;27949;-75
2023/01/15 09:27:43;;;;;;;1.52;1.20;;;5.10;99.90;;;;;;471171;251;28845;-73
2023/01/15 09:29:44;;;;;;;2.40;1.10;;;5.10;99.90;;;;;;462802;255;27478;-73
2023/01/15 09:31:45;;;;;;;2.58;1.20;;;5.10;99.90;;;;;;479076;248;27608;-73
2023/01/15 09:33:48;;;;;;;2.03;1.20;;;5.10;99.90;;;;;;478968;245;28145;-74
2023/01/15 09:35:49;;;;;;;2.22;1.20;;;5.10;99.90;;;;;;461586;257;27509;-74
2023/01/15 09:37:51;;;;;;;2.05;1.02;;;5.10;99.90;;;;;;479048;248;27981;-74
2023/01/15 09:39:51;;;;;;;3.72;1.30;;;5.10;99.90;;;;;;461684;257;28014;-74
2023/01/15 09:42:08;;;;;;;1.30;1.20;;;5.10;99.90;;;;;;478991;248;28039;-74
2023/01/15 09:44:08;;;;;;;1.87;1.15;;;5.10;99.90;;;;;;461126;258;27554;-73
2023/01/15 09:46:09;;;;;;;4.15;1.30;;;5.20;99.90;;;;;;461899;255;27466;-75
2023/01/15 09:48:10;;;;;;;2.45;1.20;;;5.20;99.90;;;;;;478999;248;29026;-78
2023/01/15 09:50:11;;;;;;;3.95;1.73;;;5.20;99.90;;;;;;479104;248;27637;-74
2023/01/15 09:52:13;;;;;;;4.47;1.40;;;5.20;99.90;;;;;;461816;257;27597;-74
2023/01/15 09:54:14;;;;;;;1.50;1.20;;;5.20;99.90;;;;;;479012;248;27550;-74
2023/01/15 09:56:15;;;;;;;1.48;1.10;;;5.10;99.90;;;;;;461956;257;27453;-74
2023/01/15 09:58:16;;;;;;;1.35;1.10;;;5.10;99.90;;;;;;479074;248;27549;-74
2023/01/15 10:00:18;;;;;;;1.55;1.17;;;5.10;99.90;;;;;;461884;257;27566;-77
2023/01/15 10:02:19;;;;;;;2.55;1.48;;;5.10;99.90;;;;;;479095;248;28262;-74
2023/01/15 10:04:20;;;;;;;1.35;1.20;;;5.20;99.90;;;;;;461132;258;28132;-78
2023/01/15 10:06:21;;;;;;;3.10;1.40;;;5.20;99.90;;;;;;461729;257;27569;-74
2023/01/15 10:08:23;;;;;;;1.70;1.10;;;5.10;99.90;;;;;;479045;248;27544;-74
2023/01/15 10:10:24;;;;;;;3.45;1.50;;;5.10;99.90;;;;;;461773;257;27862;-74
2023/01/15 10:12:34;;;;;;;1.83;1.40;;;5.10;99.90;;;;;;478919;248;27522;-74
2023/01/15 10:14:38;;;;;;;1.58;1.48;;;5.10;99.90;;;;;;479075;248;27580;-74
2023/01/15 10:16:40;;;;;;;3.55;1.40;;;5.10;99.90;;;;;;461714;257;27941;-75
2023/01/15 10:18:42;;;;;;;2.65;1.40;;;5.10;99.90;;;;;;479038;248;27553;-75
2023/01/15 10:20:42;;;;;;;2.78;1.25;;;5.00;99.90;;;;;;479085;248;27561;-77
2023/01/15 10:22:44;;;;;;;2.00;1.30;;;5.10;99.90;;;;;;461779;257;27454;-78
2023/01/15 10:24:47;;;;;;;3.60;1.20;;;5.10;99.90;;;;;;479144;248;27553;-78
2023/01/15 10:26:48;;;;;;;5.20;2.58;;;5.00;99.90;;;;;;479146;248;27572;-75
2023/01/15 10:28:49;;;;;;;1.33;1.05;;;5.10;99.90;;;;;;479000;248;27973;-76
2023/01/15 10:30:51;;;;;;;1.23;1.15;;;5.10;99.90;;;;;;461905;257;27983;-75
2023/01/15 10:32:52;;;;;;;2.85;1.40;;;5.10;99.90;;;;;;479059;247;27541;-73
2023/01/15 10:34:54;;;;;;;6.07;1.62;;;5.10;99.90;;;;;;478997;248;27605;-74
2023/01/15 10:36:54;;;;;;;2.25;1.15;;;5.00;99.90;;;;;;479096;248;28035;-78
2023/01/15 10:38:56;;;;;;;1.92;1.83;;;5.00;99.90;;;;;;478997;248;27977;-78
2023/01/15 10:40:57;;;;;;;2.03;1.10;;;5.10;99.90;;;;;;479008;248;27459;-78
2023/01/15 10:42:58;;;;;;;2.90;1.10;;;5.10;99.90;;;;;;479084;248;27530;-73
2023/01/15 10:45:00;;;;;;;4.30;1.90;;;5.00;99.90;;;;;;479021;248;27416;-78
2023/01/15 10:47:01;;;;;;;5.00;2.33;;;5.00;99.90;;;;;;479032;248;27484;-79
2023/01/15 10:49:02;;;;;;;3.15;1.52;;;5.00;99.90;;;;;;479076;248;27464;-78
2023/01/15 10:51:03;;;;;;;1.40;1.30;;;5.00;99.90;;;;;;479018;248;28128;-78
2023/01/15 10:53:06;;;;;;;1.73;1.20;;;5.00;99.90;;;;;;479046;248;27444;-78
2023/01/15 10:55:08;;;;;;;4.30;1.40;;;5.00;99.90;;;;;;479026;248;27468;-80
2023/01/15 10:57:10;;;;;;;1.42;1.20;;;5.00;99.90;;;;;;478904;248;27955;-78
2023/01/15 10:59:09;;;;;;;3.80;1.70;;;5.00;99.90;;;;;;478910;248;28064;-79
2023/01/15 11:01:10;;;;;;;2.53;1.37;;;5.00;99.90;;;;;;479113;248;28093;-78
2023/01/15 11:03:13;;;;;;;3.25;1.55;;;5.00;99.90;;;;;;479032;248;27677;-75
2023/01/15 11:05:14;;;;;;;3.12;1.20;;;5.00;99.90;;;;;;478964;248;27669;-76
2023/01/15 11:07:15;;;;;;;2.45;1.15;;;4.90;99.90;;;;;;479070;248;27900;-73
2023/01/15 11:09:16;;;;;;;3.62;1.17;;;4.80;99.90;;;;;;479955;247;29211;-75